Time;durP1;ratioP1;P1;durP2;ratioP2;P2;SDS_P1;SDS_P2;PMS_P1;PMS_P2;Temp;Humidity;BMP_temperature;BMP_pressure;BME280_temperature;BME280_humidity;BME280_pressure;Samples;Min_cycle;Max_cycle;Signal;HPM_P1;HPM_P2
2022/12/20 00:02:24;;;;;;;9.53;4.33;;;;;;;9.55;100.00;149864.72;4997564;28;20489;-73
2022/12/20 00:04:49;;;;;;;6.23;3.70;;;;;;;9.49;100.00;149850.50;5012889;28;20045;-73
2022/12/20 00:07:15;;;;;;;6.40;3.23;;;;;;;9.49;100.00;149849.19;5007752;28;20037;-72
2022/12/20 00:09:40;;;;;;;8.40;4.27;;;;;;;9.37;100.00;149820.72;5008903;28;20072;-72
2022/12/20 00:12:06;;;;;;;7.23;4.00;;;;;;;9.39;100.00;149824.59;5011849;28;20037;-72
2022/12/20 00:14:31;;;;;;;7.50;4.17;;;;;;;9.30;100.00;149802.59;5010756;28;20041;-73
2022/12/20 00:16:56;;;;;;;6.60;4.23;;;;;;;9.25;100.00;149789.69;5010453;28;20466;-71
2022/12/20 00:19:22;;;;;;;8.70;4.60;;;;;;;9.05;100.00;149739.22;5012347;28;20041;-74
2022/12/20 00:21:47;;;;;;;9.07;4.50;;;;;;;8.79;100.00;149673.25;5013299;28;20042;-74
2022/12/20 00:24:13;;;;;;;9.80;4.70;;;;;;;8.64;100.00;149634.47;5013733;28;20026;-73
2022/12/20 00:26:38;;;;;;;8.23;4.97;;;;;;;8.43;100.00;149580.16;5011516;28;20499;-73
2022/12/20 00:29:05;;;;;;;10.30;5.30;;;;;;;8.33;100.00;149554.25;5012587;28;20014;-71
2022/12/20 00:31:31;;;;;;;8.90;5.30;;;;;;;8.29;100.00;149545.22;5021562;28;20033;-72
2022/12/20 00:33:57;;;;;;;8.60;4.90;;;;;;;8.33;100.00;149554.25;5013043;28;20393;-72
2022/12/20 00:36:26;;;;;;;11.50;4.97;;;;;;;8.44;100.00;149582.75;5013554;28;20030;-73
2022/12/20 00:38:53;;;;;;;9.87;5.50;;;;;;;8.51;100.00;149600.84;5011078;28;20021;-73
2022/12/20 00:41:24;;;;;;;9.33;4.93;;;;;;;8.49;100.00;149597.00;5010914;28;20047;-73
2022/12/20 00:43:52;;;;;;;10.73;5.63;;;;;;;8.40;100.00;149573.69;5012190;28;20473;-72
2022/12/20 00:46:19;;;;;;;8.73;5.13;;;;;;;8.34;100.00;149556.81;5011995;28;20091;-74
2022/12/20 00:48:44;;;;;;;8.70;4.90;;;;;;;8.47;100.00;149590.47;5012382;28;20026;-72
2022/12/20 00:51:14;;;;;;;9.87;5.20;;;;;;;8.46;100.00;149589.19;5012448;28;20120;-72
2022/12/20 00:53:40;;;;;;;10.40;5.23;;;;;;;8.45;100.00;149585.31;5011674;28;20025;-72
2022/12/20 00:56:06;;;;;;;11.60;5.43;;;;;;;8.33;100.00;149554.25;5010697;28;20104;-72
2022/12/20 00:58:37;;;;;;;10.57;5.17;;;;;;;8.39;100.00;149569.81;5021441;28;20029;-72
2022/12/20 01:01:04;;;;;;;8.93;5.00;;;;;;;8.55;100.00;149611.19;4994673;28;20490;-73
2022/12/20 01:03:30;;;;;;;9.13;4.73;;;;;;;8.66;100.00;149638.34;5012350;28;20072;-72
2022/12/20 01:05:59;;;;;;;9.20;4.83;;;;;;;8.53;100.00;149606.03;5012578;28;20022;-72
2022/12/20 01:08:26;;;;;;;9.63;5.37;;;;;;;8.60;100.00;149624.13;5012268;28;20029;-72
2022/12/20 01:11:04;;;;;;;8.50;5.10;;;;;;;8.61;100.00;149626.72;5009725;28;20065;-73
2022/12/20 01:13:31;;;;;;;8.00;4.77;;;;;;;8.53;100.00;149606.03;5011297;28;20169;-72
2022/12/20 01:16:03;;;;;;;10.97;5.53;;;;;;;8.46;100.00;149587.91;5008232;28;20026;-72
2022/12/20 01:18:29;;;;;;;10.20;5.23;;;;;;;8.23;100.00;149530.97;5007301;28;20537;-73
2022/12/20 01:21:04;;;;;;;10.23;4.80;;;;;;;8.17;100.00;149515.47;5008752;28;20045;-73
2022/12/20 01:23:30;;;;;;;9.17;5.60;;;;;;;8.11;100.00;149498.66;5012173;28;20108;-73
2022/12/20 01:26:00;;;;;;;10.17;5.33;;;;;;;8.09;100.00;149494.78;5011722;28;20033;-73
2022/12/20 01:28:26;;;;;;;9.93;5.47;;;;;;;8.19;100.00;149520.63;5006801;28;20025;-73
2022/12/20 01:30:52;;;;;;;9.93;5.43;;;;;;;8.36;100.00;149562.03;5009145;28;20029;-72
2022/12/20 01:33:17;;;;;;;10.77;5.53;;;;;;;8.34;100.00;149556.81;5010776;28;20405;-73
2022/12/20 01:36:04;;;;;;;11.47;5.37;;;;;;;8.36;100.00;149562.03;5010314;28;20030;-72
2022/12/20 01:38:32;;;;;;;11.97;5.43;;;;;;;8.32;100.00;149551.66;5004222;28;20034;-72
2022/12/20 01:40:58;;;;;;;9.03;5.23;;;;;;;8.37;100.00;149564.66;5004767;28;20041;-72
2022/12/20 01:43:25;;;;;;;9.53;5.50;;;;;;;8.33;100.00;149555.53;5011097;28;20026;-72
2022/12/20 01:45:51;;;;;;;12.17;5.50;;;;;;;8.31;100.00;149549.06;5008460;28;20032;-72
2022/12/20 01:48:24;;;;;;;13.13;5.60;;;;;;;8.37;100.00;149564.66;5011780;28;20041;-72
2022/12/20 01:50:51;;;;;;;10.13;5.43;;;;;;;8.35;100.00;149560.75;5006030;28;20453;-72
2022/12/20 01:53:19;;;;;;;9.33;5.30;;;;;;;8.54;100.00;149607.31;5015887;28;20034;-72
2022/12/20 01:55:46;;;;;;;8.33;4.77;;;;;;;8.59;100.00;149621.50;5011442;28;20100;-73
2022/12/20 01:58:13;;;;;;;10.90;4.87;;;;;;;8.98;100.00;149719.84;5010369;28;20026;-72
2022/12/20 02:00:38;;;;;;;8.13;4.73;;;;;;;8.95;100.00;149713.34;5010827;28;20033;-71
2022/12/20 02:03:08;;;;;;;10.27;5.13;;;;;;;8.86;100.00;149688.78;5018459;23;20029;-63
2022/12/20 02:05:41;;;;;;;9.17;4.90;;;;;;;9.16;100.00;149766.38;5001293;28;20049;-61
2022/12/20 02:08:08;;;;;;;8.00;4.40;;;;;;;9.36;100.00;149818.16;5005736;28;20049;-62
2022/12/20 02:10:59;;;;;;;7.80;3.93;;;;;;;9.79;100.00;149925.53;5003452;28;20045;-62
2022/12/20 02:13:30;;;;;;;7.17;4.00;;;;;;;9.63;100.00;149886.72;5001444;28;20108;-63
2022/12/20 02:15:57;;;;;;;7.40;4.10;;;;;;;9.60;100.00;149878.97;5010425;28;20108;-62
2022/12/20 02:18:30;;;;;;;9.10;4.23;;;;;;;9.60;100.00;149877.69;5005939;28;20059;-63
2022/12/20 02:21:27;;;;;;;7.80;3.73;;;;;;;9.76;100.00;149919.06;5005772;28;20030;-63
2022/12/20 02:24:31;;;;;;;7.73;3.83;;;;;;;9.78;100.00;149922.94;5010040;28;20037;-62
2022/12/20 02:27:28;;;;;;;8.37;3.53;;;;;;;9.84;100.00;149939.81;5004883;28;20497;-60
2022/12/20 02:30:08;;;;;;;6.47;3.50;;;;;;;9.72;100.00;149908.72;5005563;28;20107;-61
2022/12/20 02:32:52;;;;;;;6.60;3.70;;;;;;;9.75;100.00;149916.50;4996180;28;20026;-63
2022/12/20 02:35:22;;;;;;;5.90;2.97;;;;;;;9.79;100.00;149926.81;5005148;28;20041;-61
2022/12/20 02:37:49;;;;;;;6.57;3.10;;;;;;;9.90;100.00;149954.00;5005971;28;20117;-62
2022/12/20 02:40:20;;;;;;;6.37;3.40;;;;;;;10.07;100.00;149998.06;5005978;28;20036;-62
2022/12/20 02:42:47;;;;;;;7.00;3.60;;;;;;;9.82;100.00;149934.63;5002509;28;20038;-62
2022/12/20 02:45:14;;;;;;;7.27;3.70;;;;;;;9.81;100.00;149930.72;4999944;28;20030;-61
2022/12/20 02:47:41;;;;;;;7.60;4.00;;;;;;;9.66;100.00;149893.19;5002767;28;20117;-62
2022/12/20 02:50:08;;;;;;;8.57;3.70;;;;;;;9.60;100.00;149877.69;5011273;28;20120;-62
2022/12/20 02:52:35;;;;;;;8.10;3.87;;;;;;;9.67;100.00;149895.78;4996618;28;20101;-62
2022/12/20 02:55:03;;;;;;;7.43;3.70;;;;;;;9.45;100.00;149840.16;5002011;28;20545;-62
2022/12/20 02:57:36;;;;;;;7.23;4.20;;;;;;;9.33;100.00;149810.41;5008263;28;20030;-62
2022/12/20 03:00:08;;;;;;;9.60;4.10;;;;;;;9.28;100.00;149797.44;5002713;28;20030;-62
2022/12/20 03:03:35;;;;;;;6.93;4.17;;;;;;;9.07;100.00;149743.09;5010119;28;20457;-61
2022/12/20 03:05:34;;;;;;;6.87;3.57;;;;;;;9.07;100.00;149743.09;4964912;28;20121;-61
2022/12/20 03:07:59;;;;;;;7.57;3.80;;;;;;;9.17;100.00;149768.97;4991842;28;20469;-62
2022/12/20 03:10:25;;;;;;;7.30;3.80;;;;;;;9.01;100.00;149727.59;4991037;28;20034;-61
2022/12/20 03:12:50;;;;;;;8.53;4.00;;;;;;;8.96;100.00;149714.63;4983925;28;20015;-61
2022/12/20 03:15:15;;;;;;;7.23;3.57;;;;;;;8.89;100.00;149696.53;4985782;28;20030;-62
2022/12/20 03:17:41;;;;;;;7.70;4.10;;;;;;;9.03;100.00;149732.75;4993542;28;20146;-61
2022/12/20 03:20:07;;;;;;;8.23;4.07;;;;;;;8.92;100.00;149704.28;4987798;28;20027;-62
2022/12/20 03:22:33;;;;;;;9.30;4.47;;;;;;;8.98;100.00;149719.84;4985801;28;20493;-61
2022/12/20 03:24:59;;;;;;;7.40;4.00;;;;;;;9.02;100.00;149731.47;4986012;28;20475;-61
2022/12/20 03:27:27;;;;;;;8.83;4.37;;;;;;;8.91;100.00;149701.72;4986818;28;20034;-61
2022/12/20 03:29:52;;;;;;;8.13;4.30;;;;;;;8.89;100.00;149696.53;4988086;28;20019;-62
2022/12/20 03:32:32;;;;;;;8.50;4.23;;;;;;;8.81;100.00;149678.41;4976392;28;20118;-61
2022/12/20 03:35:07;;;;;;;7.87;4.50;;;;;;;8.75;100.00;149662.94;4993421;28;20049;-62
2022/12/20 03:37:33;;;;;;;7.43;4.17;;;;;;;8.77;100.00;149666.78;4983555;28;20521;-61
2022/12/20 03:40:08;;;;;;;7.60;4.40;;;;;;;8.92;100.00;149704.28;4984413;28;20034;-63
2022/12/20 03:42:35;;;;;;;7.40;3.90;;;;;;;9.14;100.00;149761.22;4984499;28;20028;-64
2022/12/20 03:45:01;;;;;;;7.77;4.00;;;;;;;9.22;100.00;149781.94;4988566;28;20046;-62
2022/12/20 03:47:26;;;;;;;7.37;3.50;;;;;;;9.44;100.00;149836.22;4991710;28;20026;-63
2022/12/20 03:49:51;;;;;;;6.73;3.27;;;;;;;9.50;100.00;149851.78;4978556;28;20114;-62
2022/12/20 03:52:17;;;;;;;7.40;3.50;;;;;;;9.60;100.00;149878.97;4975532;28;20360;-64
2022/12/20 03:54:43;;;;;;;8.60;3.80;;;;;;;9.73;100.00;149910.03;4984737;28;20050;-65
2022/12/20 03:57:08;;;;;;;5.67;3.30;;;;;;;10.11;100.00;150007.13;4991431;28;20110;-65
2022/12/20 03:59:34;;;;;;;6.13;2.83;;;;;;;10.25;100.00;150044.69;4979349;28;20097;-65
2022/12/20 04:02:00;;;;;;;8.00;3.47;;;;;;;10.29;100.00;150053.75;4984687;28;20072;-64
2022/12/20 04:04:25;;;;;;;8.90;3.10;;;;;;;10.42;100.00;150086.16;4985847;28;20030;-64
2022/12/20 04:06:51;;;;;;;4.87;3.00;;;;;;;10.50;100.00;150106.84;4985945;28;20109;-63
2022/12/20 04:09:16;;;;;;;7.67;3.00;;;;;;;10.46;100.00;150096.50;4985688;28;20430;-64
2022/12/20 04:11:41;;;;;;;5.30;3.10;;;;;;;10.55;100.00;150121.13;4985648;28;20022;-64
2022/12/20 04:14:07;;;;;;;7.93;3.17;;;;;;;10.39;100.00;150079.66;4991942;28;20038;-63
2022/12/20 04:16:33;;;;;;;5.60;2.40;;;;;;;10.48;100.00;150102.97;4985096;28;20030;-64
2022/12/20 04:18:58;;;;;;;5.53;2.50;;;;;;;10.46;100.00;150097.81;4988435;28;20056;-64
2022/12/20 04:21:28;;;;;;;6.13;3.00;;;;;;;10.36;100.00;150071.91;4986507;28;20113;-64
2022/12/20 04:23:54;;;;;;;7.30;3.30;;;;;;;10.41;100.00;150083.53;4984437;28;20489;-63
2022/12/20 04:26:20;;;;;;;6.03;2.93;;;;;;;10.44;100.00;150092.63;4985283;28;20074;-63
2022/12/20 04:28:45;;;;;;;7.97;3.30;;;;;;;10.39;100.00;150079.66;4991827;28;20351;-64
2022/12/20 04:31:11;;;;;;;7.83;3.50;;;;;;;10.36;100.00;150071.91;4983748;28;20026;-63
2022/12/20 04:33:37;;;;;;;7.13;3.53;;;;;;;10.33;100.00;150064.16;4981826;28;20049;-64
2022/12/20 04:36:03;;;;;;;6.47;2.97;;;;;;;10.26;100.00;150046.00;4985038;28;20434;-64
2022/12/20 04:38:35;;;;;;;9.57;3.43;;;;;;;10.31;100.00;150058.97;4990435;28;20113;-65
2022/12/20 04:41:04;;;;;;;6.90;3.27;;;;;;;10.28;100.00;150052.47;4978914;28;20059;-65
2022/12/20 04:43:29;;;;;;;5.40;3.00;;;;;;;10.23;100.00;150038.25;4987479;28;20018;-65
2022/12/20 04:45:55;;;;;;;6.77;3.43;;;;;;;10.08;100.00;150000.66;4988615;28;20088;-65
2022/12/20 04:48:25;;;;;;;7.67;3.50;;;;;;;10.07;100.00;149996.78;4983991;28;20359;-65
2022/12/20 04:50:52;;;;;;;10.93;3.90;;;;;;;9.98;100.00;149976.03;4982189;28;20026;-65
2022/12/20 04:56:02;;;;;;;6.60;3.50;;;;;;;9.87;100.00;149947.56;4983603;28;20088;-65
2022/12/20 04:58:28;;;;;;;6.93;3.53;;;;;;;10.03;100.00;149986.38;4986472;28;20031;-65
2022/12/20 05:00:53;;;;;;;5.83;3.30;;;;;;;9.85;100.00;149941.09;4983202;28;20518;-65
2022/12/20 05:03:20;;;;;;;5.80;3.83;;;;;;;9.75;100.00;149915.19;4988974;28;20029;-65
2022/12/20 05:05:46;;;;;;;7.30;3.97;;;;;;;9.62;100.00;149882.84;4992187;28;20029;-65
2022/12/20 05:08:11;;;;;;;7.70;3.60;;;;;;;9.64;100.00;149888.00;4976072;28;20530;-65
2022/12/20 05:10:37;;;;;;;6.47;4.17;;;;;;;9.48;100.00;149846.63;4978618;28;20034;-64
2022/12/20 05:13:03;;;;;;;6.40;3.37;;;;;;;9.49;100.00;149849.19;4984123;28;20518;-65
2022/12/20 05:15:28;;;;;;;9.17;4.73;;;;;;;9.37;100.00;149820.72;4981839;28;20038;-65
2022/12/20 05:17:58;;;;;;;9.43;4.50;;;;;;;9.33;100.00;149810.41;4989477;28;20034;-65
2022/12/20 05:20:26;;;;;;;9.10;4.53;;;;;;;9.35;100.00;149815.56;4986468;28;20018;-65
2022/12/20 05:28:26;;;;;;;11.57;5.10;;;;;;;9.26;100.00;149792.25;4985784;28;20065;-65
2022/12/20 05:30:52;;;;;;;12.03;5.20;;;;;;;9.26;100.00;149792.25;4987545;28;20069;-63
2022/12/20 05:33:17;;;;;;;7.43;4.53;;;;;;;9.34;100.00;149812.97;4986323;28;20104;-63
2022/12/20 05:35:42;;;;;;;10.53;5.10;;;;;;;9.29;100.00;149800.00;4983942;28;20030;-63
2022/12/20 05:39:12;;;;;;;11.37;5.70;;;;;;;9.27;100.00;79473.00;4973834;28;20026;-64
2022/12/20 05:41:39;;;;;;;10.63;5.03;;;;;;;9.19;100.00;149772.84;4964378;28;20394;-63
2022/12/20 05:44:11;;;;;;;13.57;5.50;;;;;;;9.12;100.00;149756.06;4985320;28;20033;-64
2022/12/20 05:46:36;;;;;;;10.93;5.87;;;;;;;9.09;100.00;149748.31;4982250;28;20088;-64
2022/12/20 05:49:02;;;;;;;14.80;6.17;;;;;;;8.99;100.00;149722.41;4975151;28;20053;-65
2022/12/20 05:51:27;;;;;;;10.93;5.70;;;;;;;8.92;100.00;149704.28;4969442;28;20442;-64
2022/12/20 05:53:52;;;;;;;12.27;6.03;;;;;;;8.85;100.00;149686.22;4973381;28;20031;-64
2022/12/20 05:56:18;;;;;;;10.80;6.27;;;;;;;8.87;100.00;149691.38;4991566;28;20080;-64
2022/12/20 05:58:43;;;;;;;10.50;6.30;;;;;;;8.77;100.00;149666.78;4986758;28;20019;-64
2022/12/20 06:01:09;;;;;;;10.10;6.10;;;;;;;8.78;100.00;149670.66;4984494;28;20498;-66
2022/12/20 06:03:35;;;;;;;13.50;6.17;;;;;;;8.75;100.00;149662.94;4977325;28;20652;-65
2022/12/20 06:06:01;;;;;;;13.40;6.53;;;;;;;8.80;100.00;149674.53;4988866;28;20516;-64
2022/12/20 06:08:26;;;;;;;10.67;6.30;;;;;;;8.76;100.00;149665.50;4981899;28;20026;-64
2022/12/20 06:10:52;;;;;;;10.20;6.20;;;;;;;8.75;100.00;149662.94;4979813;28;20034;-64
2022/12/20 06:13:18;;;;;;;12.13;6.40;;;;;;;8.69;100.00;149647.38;4976147;28;20040;-64
2022/12/20 06:15:44;;;;;;;11.77;6.03;;;;;;;8.76;100.00;149664.22;4992114;28;20077;-64
2022/12/20 06:18:10;;;;;;;9.53;5.90;;;;;;;8.75;100.00;149662.94;4991039;28;20026;-66
2022/12/20 06:20:36;;;;;;;12.03;6.27;;;;;;;8.84;100.00;149683.59;4991557;28;20026;-65
2022/12/20 06:23:02;;;;;;;10.43;5.93;;;;;;;8.97;100.00;149717.25;4975865;28;20038;-65
2022/12/20 06:25:28;;;;;;;9.80;5.87;;;;;;;8.93;100.00;149706.88;4990172;28;20394;-65
2022/12/20 06:27:55;;;;;;;11.23;6.17;;;;;;;8.94;100.00;149710.75;4986456;28;20034;-65
2022/12/20 06:30:21;;;;;;;10.10;5.70;;;;;;;8.91;100.00;149703.00;4991967;28;20026;-65
2022/12/20 06:32:46;;;;;;;10.37;5.80;;;;;;;8.91;100.00;149701.72;4977958;28;20065;-65
2022/12/20 06:35:12;;;;;;;9.33;5.40;;;;;;;8.86;100.00;149690.09;4980399;28;20413;-65
2022/12/20 06:37:39;;;;;;;9.87;5.87;;;;;;;8.82;100.00;149681.00;4991835;28;20093;-65
2022/12/20 06:40:06;;;;;;;8.97;5.70;;;;;;;8.84;100.00;149684.88;4987621;28;20153;-66
2022/12/20 06:42:32;;;;;;;10.30;5.47;;;;;;;8.91;100.00;149701.72;4991767;28;20069;-65
2022/12/20 06:44:57;;;;;;;10.40;5.23;;;;;;;8.87;100.00;149692.66;4994412;28;20026;-66
2022/12/20 06:47:23;;;;;;;10.93;5.67;;;;;;;8.94;100.00;149710.75;4991671;28;20029;-66
2022/12/20 06:49:48;;;;;;;9.63;5.23;;;;;;;8.93;100.00;149708.16;4992132;28;20038;-65
2022/12/20 06:52:13;;;;;;;9.63;5.17;;;;;;;9.07;100.00;149744.38;4991704;28;20022;-65
2022/12/20 06:54:39;;;;;;;10.37;5.07;;;;;;;9.03;100.00;149732.75;4979986;28;20040;-65
2022/12/20 06:57:05;;;;;;;10.57;5.40;;;;;;;9.05;100.00;149739.22;4988166;28;20373;-65
2022/12/20 06:59:31;;;;;;;8.80;5.00;;;;;;;9.12;100.00;149756.06;4983625;28;20096;-65
2022/12/20 07:01:56;;;;;;;9.27;4.90;;;;;;;9.19;100.00;149774.13;4991235;28;20018;-65
2022/12/20 07:04:22;;;;;;;10.70;4.90;;;;;;;9.16;100.00;149766.38;4991580;28;20049;-65
2022/12/20 07:06:47;;;;;;;9.27;5.00;;;;;;;9.27;100.00;149794.84;4983101;28;20034;-65
2022/12/20 07:09:13;;;;;;;8.77;4.97;;;;;;;9.24;100.00;149787.09;4972745;28;20039;-65
2022/12/20 07:11:38;;;;;;;7.00;4.60;;;;;;;9.16;100.00;149765.09;4986414;28;20118;-65
2022/12/20 07:14:03;;;;;;;11.10;4.90;;;;;;;9.21;100.00;149779.34;4982950;28;20038;-65
2022/12/20 07:16:30;;;;;;;9.53;4.90;;;;;;;9.40;100.00;149828.47;4991751;28;20046;-65
2022/12/20 07:18:56;;;;;;;9.13;4.80;;;;;;;9.32;100.00;149806.47;4990971;28;20073;-65
2022/12/20 07:21:21;;;;;;;8.83;4.80;;;;;;;9.34;100.00;149812.97;4991780;28;20751;-65
2022/12/20 07:23:47;;;;;;;9.77;5.07;;;;;;;9.46;100.00;149841.44;4989806;28;20064;-65
2022/12/20 07:26:13;;;;;;;9.70;5.03;;;;;;;9.61;100.00;149880.25;4987128;28;20030;-65
2022/12/20 07:28:39;;;;;;;8.37;4.80;;;;;;;9.76;100.00;149917.78;4989237;28;20497;-65
2022/12/20 07:31:04;;;;;;;8.40;4.47;;;;;;;9.69;100.00;149900.94;4989246;28;20045;-66
2022/12/20 07:33:31;;;;;;;9.27;4.80;;;;;;;9.74;100.00;149912.63;4972967;28;20382;-65
2022/12/20 07:36:01;;;;;;;10.20;4.90;;;;;;;9.74;100.00;149913.91;4978114;28;20030;-65
2022/12/20 07:38:39;;;;;;;7.63;4.70;;;;;;;9.67;100.00;149895.78;4991996;28;20093;-65
2022/12/20 07:41:13;;;;;;;7.70;4.23;;;;;;;9.82;100.00;149933.34;5007984;28;20026;-64
2022/12/20 07:43:42;;;;;;;10.33;4.80;;;;;;;9.88;100.00;149950.13;5012925;28;20030;-65
2022/12/20 07:46:10;;;;;;;7.97;4.10;;;;;;;9.81;100.00;149932.03;5014844;28;20044;-65
2022/12/20 07:48:36;;;;;;;8.43;4.20;;;;;;;9.84;100.00;149939.81;5004649;28;20030;-65
2022/12/20 07:51:06;;;;;;;11.03;4.30;;;;;;;9.76;100.00;149919.06;4995040;28;20034;-64
2022/12/20 07:53:34;;;;;;;7.60;4.40;;;;;;;9.77;100.00;149921.66;4990842;28;20018;-65
2022/12/20 07:56:01;;;;;;;8.30;4.33;;;;;;;9.69;100.00;149902.28;4983076;28;20117;-64
2022/12/20 07:58:28;;;;;;;7.77;4.40;;;;;;;9.71;100.00;149906.16;4975741;28;20106;-65
2022/12/20 08:00:54;;;;;;;7.87;4.43;;;;;;;9.68;100.00;149899.63;4993773;28;20045;-64
2022/12/20 08:03:24;;;;;;;8.17;4.77;;;;;;;9.61;100.00;149880.25;4994623;28;20442;-65
2022/12/20 08:05:55;;;;;;;8.77;4.27;;;;;;;9.68;100.00;149899.63;4994995;28;20156;-64
2022/12/20 08:08:21;;;;;;;11.18;4.57;;;;;;;9.70;100.00;149903.56;4976483;28;20026;-64
2022/12/20 08:10:47;;;;;;;9.03;4.50;;;;;;;9.79;100.00;149926.81;4975544;28;20493;-64
2022/12/20 08:13:13;;;;;;;8.20;4.40;;;;;;;9.73;100.00;149911.31;4994806;28;20104;-64
2022/12/20 08:15:38;;;;;;;9.20;4.40;;;;;;;9.61;100.00;149880.25;4994786;28;20478;-64
2022/12/20 08:18:05;;;;;;;8.40;4.80;;;;;;;9.64;100.00;149888.00;4994469;28;20058;-64
2022/12/20 08:20:31;;;;;;;8.80;4.57;;;;;;;9.63;100.00;149885.44;4994690;28;20029;-64
2022/12/20 08:22:57;;;;;;;11.37;4.90;;;;;;;9.59;100.00;149875.09;4994468;28;20022;-64
2022/12/20 08:25:22;;;;;;;9.33;4.63;;;;;;;9.56;100.00;149868.59;4994398;28;20105;-64
2022/12/20 08:27:48;;;;;;;9.57;5.00;;;;;;;9.52;100.00;149858.25;4994333;28;20101;-64
2022/12/20 08:30:14;;;;;;;8.20;4.67;;;;;;;9.54;100.00;149862.13;4991902;28;20038;-64
2022/12/20 08:32:40;;;;;;;9.10;4.90;;;;;;;9.58;100.00;149872.50;4986239;28;20019;-63
2022/12/20 08:35:06;;;;;;;10.93;5.00;;;;;;;9.58;100.00;149872.50;4974601;28;20704;-64
2022/12/20 08:37:32;;;;;;;10.73;4.90;;;;;;;9.62;100.00;149882.84;4980522;28;20037;-64
2022/12/20 08:39:57;;;;;;;9.40;4.93;;;;;;;9.74;100.00;149913.91;4990628;28;20107;-64
2022/12/20 08:42:23;;;;;;;9.70;5.00;;;;;;;9.75;100.00;149916.50;4990018;28;20046;-65
2022/12/20 08:44:48;;;;;;;8.27;4.57;;;;;;;9.75;100.00;149916.50;4992076;28;20040;-65
2022/12/20 08:47:14;;;;;;;7.40;4.87;;;;;;;9.74;100.00;149913.91;4982888;28;20398;-65
2022/12/20 08:49:40;;;;;;;7.73;4.73;;;;;;;9.67;100.00;149895.78;4989756;28;20034;-65
2022/12/20 08:52:05;;;;;;;7.20;4.30;;;;;;;9.73;100.00;149910.03;4979620;28;20069;-64
2022/12/20 08:54:30;;;;;;;9.83;4.67;;;;;;;9.76;100.00;149917.78;4980573;28;20098;-64
2022/12/20 08:56:56;;;;;;;9.03;5.43;;;;;;;9.80;100.00;149929.41;4981830;28;20026;-64
2022/12/20 08:59:21;;;;;;;7.83;4.40;;;;;;;9.84;100.00;149939.81;4989468;28;20030;-64
2022/12/20 09:01:46;;;;;;;8.70;4.53;;;;;;;10.03;100.00;149986.38;4993716;28;20026;-64
2022/12/20 09:04:12;;;;;;;8.57;4.50;;;;;;;9.99;100.00;149977.34;4993527;28;20030;-64
2022/12/20 09:06:38;;;;;;;7.23;4.60;;;;;;;9.92;100.00;149959.19;4988740;28;20026;-64
2022/12/20 09:09:04;;;;;;;7.90;4.20;;;;;;;9.92;100.00;149960.47;4974463;28;20041;-64
2022/12/20 09:11:30;;;;;;;10.30;4.30;;;;;;;9.85;100.00;149942.38;4973991;28;20023;-64
2022/12/20 09:13:57;;;;;;;11.17;4.97;;;;;;;9.83;100.00;149937.22;4974007;28;20031;-65
2022/12/20 09:16:27;;;;;;;8.73;4.60;;;;;;;9.82;100.00;149933.34;4974377;28;20080;-64
2022/12/20 09:18:56;;;;;;;11.20;4.50;;;;;;;9.73;100.00;149910.03;4975047;28;20490;-64
2022/12/20 09:21:22;;;;;;;9.93;4.67;;;;;;;9.73;100.00;149911.31;4995566;28;20029;-64
2022/12/20 09:23:51;;;;;;;8.33;4.10;;;;;;;9.73;100.00;149911.31;4993292;28;20034;-64
2022/12/20 09:26:18;;;;;;;8.80;4.57;;;;;;;9.76;100.00;149919.06;4993279;28;20022;-64
2022/12/20 09:28:44;;;;;;;9.30;4.60;;;;;;;9.80;100.00;149928.13;4993333;28;20036;-65
2022/12/20 09:31:12;;;;;;;8.77;4.37;;;;;;;9.84;100.00;149938.50;4993132;28;20050;-65
2022/12/20 09:33:38;;;;;;;8.10;4.50;;;;;;;9.91;100.00;149957.91;4993429;28;20102;-65
2022/12/20 09:36:04;;;;;;;7.93;4.30;;;;;;;9.99;100.00;149978.63;4993038;28;20109;-64
2022/12/20 09:38:31;;;;;;;7.00;4.10;;;;;;;9.93;100.00;149963.13;4993058;28;20023;-64
2022/12/20 09:41:00;;;;;;;10.07;4.70;;;;;;;9.97;100.00;149973.47;4993336;28;20026;-65
2022/12/20 09:43:26;;;;;;;10.07;4.30;;;;;;;10.06;100.00;149994.19;4992957;28;20030;-64
2022/12/20 09:45:55;;;;;;;8.10;4.53;;;;;;;10.04;100.00;149988.97;4995473;28;20026;-65
2022/12/20 09:48:25;;;;;;;7.77;4.10;;;;;;;10.08;100.00;149999.34;4993133;28;20541;-64
2022/12/20 09:51:16;;;;;;;10.20;3.90;;;;;;;10.12;100.00;150009.69;4992676;28;20026;-64
2022/12/20 09:54:01;;;;;;;8.38;4.35;;;;;;;10.18;100.00;150025.25;4993115;28;20386;-65
2022/12/20 09:56:29;;;;;;;9.47;4.87;;;;;;;10.27;100.00;150049.88;4992769;28;20034;-64
2022/12/20 09:59:09;;;;;;;7.90;4.63;;;;;;;10.48;100.00;150101.69;4992884;28;20038;-64
2022/12/20 10:01:35;;;;;;;6.93;3.67;;;;;;;10.51;100.00;150109.44;4981221;28;20077;-64
2022/12/20 10:04:21;;;;;;;7.10;3.87;;;;;;;10.52;100.00;150112.03;4979527;28;20038;-64
2022/12/20 10:07:34;;;;;;;11.57;4.57;;;;;;;10.49;100.00;150105.56;4991270;28;20036;-64
2022/12/20 10:10:21;;;;;;;7.60;3.90;;;;;;;10.43;100.00;150090.06;4932270;29;20488;-64
2022/12/20 10:12:56;;;;;;;7.40;4.20;;;;;;;10.34;100.00;150066.72;4932345;29;20134;-64
2022/12/20 10:15:31;;;;;;;6.80;4.23;;;;;;;10.30;100.00;150055.03;4932293;29;20518;-63
2022/12/20 10:18:05;;;;;;;7.47;3.83;;;;;;;10.32;100.00;150061.56;4932095;29;20188;-63
2022/12/20 10:21:00;;;;;;;7.63;3.70;;;;;;;10.55;100.00;150121.13;4932119;29;20097;-64
2022/12/20 10:23:31;;;;;;;10.00;4.00;;;;;;;10.63;100.00;150139.22;4930399;28;20439;-64
2022/12/20 10:25:57;;;;;;;6.45;3.70;;;;;;;10.75;100.00;150170.31;4932221;29;20481;-64
2022/12/20 10:28:32;;;;;;;7.20;3.93;;;;;;;10.81;100.00;150185.91;4932179;29;20055;-64
2022/12/20 10:31:04;;;;;;;7.70;3.57;;;;;;;10.80;100.00;150184.59;4932083;29;20036;-64
2022/12/20 10:33:30;;;;;;;8.95;3.47;;;;;;;10.79;100.00;150180.72;4932118;29;20023;-64
2022/12/20 10:36:18;;;;;;;6.33;3.57;;;;;;;10.75;100.00;150170.31;4932084;29;20051;-64
2022/12/20 10:38:46;;;;;;;5.50;3.20;;;;;;;10.77;100.00;150175.50;4931996;29;20076;-64
2022/12/20 10:41:47;;;;;;;7.43;3.50;;;;;;;10.96;100.00;150224.75;4934619;29;20031;-65
2022/12/20 10:44:31;;;;;;;10.07;4.23;;;;;;;10.96;100.00;150224.75;4972815;28;20034;-63
2022/12/20 10:46:59;;;;;;;7.30;3.47;;;;;;;10.88;100.00;150204.00;4990817;28;20035;-62
2022/12/20 10:49:27;;;;;;;5.90;3.60;;;;;;;10.85;100.00;150196.25;4992111;28;20030;-62
2022/12/20 10:51:55;;;;;;;6.80;3.47;;;;;;;10.88;100.00;150202.72;4991913;28;20033;-63
2022/12/20 10:54:30;;;;;;;9.53;3.70;;;;;;;11.01;100.00;150237.69;4992386;28;20106;-64
2022/12/20 10:56:58;;;;;;;8.07;3.50;;;;;;;11.11;100.00;150263.59;4992200;28;20026;-64
2022/12/20 10:59:35;;;;;;;5.73;2.70;;;;;;;11.43;100.00;150343.97;4992279;28;20045;-64
2022/12/20 11:02:20;;;;;;;9.23;3.70;;;;;;;11.53;100.00;150369.91;4989340;28;20023;-63
2022/12/20 11:04:58;;;;;;;5.37;2.63;;;;;;;11.92;100.00;150468.50;4989402;28;20030;-62
2022/12/20 11:07:28;;;;;;;61.30;3.30;;;;;;;12.01;100.00;150493.13;4983106;28;20035;-62
2022/12/20 11:10:00;;;;;;;8.77;2.43;;;;;;;11.99;100.00;150486.63;4992767;28;20065;-64
2022/12/20 11:12:25;;;;;;;;;;;;;;;12.00;100.00;150490.53;4992740;28;20030;-64
2022/12/20 11:15:08;;;;;;;5.20;2.30;;;;;;;11.93;100.00;150471.06;4987504;28;20379;-63
2022/12/20 11:17:46;;;;;;;5.67;2.97;;;;;;;11.85;100.00;150450.31;4988360;28;20109;-66
2022/12/20 11:20:37;;;;;;;5.73;2.47;;;;;;;11.88;100.00;150459.44;4994350;28;20105;-64
2022/12/20 11:23:20;;;;;;;5.03;2.58;;;;;;;11.90;100.00;150463.31;4994667;28;20037;-64
2022/12/20 11:25:58;;;;;;;4.03;2.23;;;;;;;11.85;100.00;150450.31;4995656;28;20497;-64
2022/12/20 11:28:51;;;;;;;5.77;2.63;;;;;;;11.71;100.00;150416.56;4985366;28;20054;-64
2022/12/20 11:31:35;;;;;;;6.17;2.80;;;;;;;11.58;100.00;150382.84;4987841;28;20038;-64
2022/12/20 11:34:16;;;;;;;5.97;2.80;;;;;;;11.49;100.00;150358.22;4994667;28;20035;-64
2022/12/20 11:36:57;;;;;;;6.72;3.00;;;;;;;11.38;100.00;150331.00;4994687;28;20037;-64
2022/12/20 11:39:31;;;;;;;7.00;3.00;;;;;;;11.35;100.00;150323.22;4999355;28;20108;-64
2022/12/20 11:42:15;;;;;;;7.07;2.90;;;;;;;11.13;100.00;150268.78;4993955;28;20080;-65